Time;durP1;ratioP1;P1;durP2;ratioP2;P2;SDS_P1;SDS_P2;PMS_P1;PMS_P2;Temp;Humidity;BMP_temperature;BMP_pressure;BME280_temperature;BME280_humidity;BME280_pressure;Samples;Min_cycle;Max_cycle;Signal;HPM_P1;HPM_P2
2023/02/27 00:00:41;;;;;;;1.10;1.00;;;19.10;57.70;;;;;;5068963;28;20051;-76
2023/02/27 00:03:07;;;;;;;1.30;1.20;;;19.10;57.70;;;;;;5068415;28;20040;-76
2023/02/27 00:05:32;;;;;;;1.05;1.00;;;19.10;57.60;;;;;;5069484;28;20421;-76
2023/02/27 00:07:58;;;;;;;1.20;1.10;;;19.10;57.50;;;;;;5069264;28;20036;-76
2023/02/27 00:10:23;;;;;;;0.98;0.98;;;19.10;57.40;;;;;;5068328;28;20127;-77
2023/02/27 00:12:49;;;;;;;1.02;0.93;;;19.10;57.10;;;;;;5068859;28;20044;-76
2023/02/27 00:15:17;;;;;;;0.85;0.80;;;19.10;57.50;;;;;;5069698;28;20410;-77
2023/02/27 00:17:42;;;;;;;1.00;1.00;;;19.00;57.00;;;;;;5068675;28;20501;-76
2023/02/27 00:20:12;;;;;;;1.08;1.08;;;19.00;57.20;;;;;;5068911;28;20075;-76
2023/02/27 00:22:39;;;;;;;1.17;1.08;;;19.00;57.00;;;;;;5068821;28;20061;-76
2023/02/27 00:25:05;;;;;;;0.93;0.93;;;19.00;57.00;;;;;;5068644;28;20052;-76
2023/02/27 00:27:31;;;;;;;1.30;1.20;;;19.00;56.90;;;;;;5063443;28;20090;-76
2023/02/27 00:29:57;;;;;;;1.10;1.10;;;19.00;56.70;;;;;;5066893;28;20056;-76
2023/02/27 00:32:23;;;;;;;1.20;1.17;;;19.00;56.60;;;;;;5068754;28;20285;-77
2023/02/27 00:34:48;;;;;;;0.98;0.98;;;19.00;56.90;;;;;;5071538;28;20068;-76
2023/02/27 00:37:14;;;;;;;1.00;1.00;;;18.90;56.80;;;;;;5070738;28;20049;-78
2023/02/27 00:39:40;;;;;;;1.70;1.00;;;18.90;56.80;;;;;;5068883;28;20045;-77
2023/02/27 00:42:05;;;;;;;1.55;0.80;;;19.00;56.60;;;;;;5069040;28;20418;-76
2023/02/27 00:44:31;;;;;;;0.75;0.75;;;18.90;56.60;;;;;;5070002;28;20048;-77
2023/02/27 00:46:57;;;;;;;0.90;0.90;;;18.90;56.50;;;;;;5070751;28;20417;-76
2023/02/27 00:49:24;;;;;;;0.80;0.80;;;18.90;56.40;;;;;;5067978;28;20493;-77
2023/02/27 00:51:49;;;;;;;0.70;0.70;;;18.90;56.80;;;;;;5068876;28;20505;-76
2023/02/27 00:54:16;;;;;;;0.82;0.82;;;18.80;56.50;;;;;;5065628;28;20078;-77
2023/02/27 00:56:42;;;;;;;0.90;0.90;;;18.80;56.70;;;;;;5067240;28;20037;-77
2023/02/27 00:59:07;;;;;;;0.77;0.77;;;18.80;56.70;;;;;;5069826;28;20049;-77
2023/02/27 01:01:33;;;;;;;0.75;0.70;;;18.70;56.60;;;;;;5069348;28;20045;-77
2023/02/27 01:03:59;;;;;;;0.82;0.82;;;18.70;56.40;;;;;;5070014;28;20040;-77
2023/02/27 01:06:25;;;;;;;0.77;0.77;;;18.70;56.50;;;;;;5069732;28;20044;-77
2023/02/27 01:08:50;;;;;;;0.95;0.95;;;18.70;56.70;;;;;;5067850;28;20056;-76
2023/02/27 01:11:16;;;;;;;1.23;1.13;;;18.70;56.40;;;;;;5069491;28;20947;-78
2023/02/27 01:13:43;;;;;;;1.23;1.13;;;18.60;56.60;;;;;;5067400;28;20044;-76
2023/02/27 01:16:09;;;;;;;2.47;1.10;;;18.60;56.60;;;;;;5069453;28;20037;-77
2023/02/27 01:18:34;;;;;;;0.75;0.75;;;18.60;56.60;;;;;;5067254;28;20123;-77
2023/02/27 01:21:00;;;;;;;1.20;1.10;;;18.60;56.40;;;;;;5067725;28;20420;-76
2023/02/27 01:23:26;;;;;;;1.13;1.02;;;18.60;56.30;;;;;;5066601;28;20079;-77
2023/02/27 01:25:51;;;;;;;1.88;0.77;;;18.60;56.30;;;;;;5069690;28;20527;-76
2023/02/27 01:28:17;;;;;;;0.70;0.70;;;18.60;57.20;;;;;;5068564;28;20065;-76
2023/02/27 01:30:42;;;;;;;0.73;0.60;;;18.60;56.50;;;;;;5069274;28;20115;-76
2023/02/27 01:33:08;;;;;;;0.93;0.80;;;18.50;56.40;;;;;;5068772;28;20043;-76
2023/02/27 01:35:34;;;;;;;1.00;1.00;;;18.50;56.40;;;;;;5056761;28;20818;-77
2023/02/27 01:38:00;;;;;;;0.70;0.70;;;18.50;56.50;;;;;;5058971;28;20089;-76
2023/02/27 01:40:25;;;;;;;0.80;0.80;;;18.50;56.20;;;;;;5055096;28;20098;-77
2023/02/27 01:42:51;;;;;;;0.77;0.70;;;18.50;56.00;;;;;;5036511;28;20175;-76
2023/02/27 01:45:24;;;;;;;0.50;0.50;;;18.50;56.20;;;;;;5052346;28;20075;-77
2023/02/27 01:47:56;;;;;;;0.60;0.60;;;18.50;56.20;;;;;;5067466;28;20501;-76
2023/02/27 01:50:22;;;;;;;0.85;0.85;;;18.50;56.50;;;;;;5063903;28;20098;-77
2023/02/27 01:52:52;;;;;;;0.73;0.73;;;18.50;56.20;;;;;;5050547;28;20048;-76
2023/02/27 01:55:17;;;;;;;0.70;0.70;;;18.50;56.30;;;;;;5065901;28;20048;-77
2023/02/27 01:57:43;;;;;;;0.70;0.70;;;18.50;56.20;;;;;;5049929;28;20505;-77
2023/02/27 02:00:10;;;;;;;0.68;0.68;;;18.40;55.80;;;;;;5066286;28;20114;-76
2023/02/27 02:02:37;;;;;;;1.05;0.70;;;18.40;55.90;;;;;;5064884;28;20040;-76
2023/02/27 02:05:03;;;;;;;0.80;0.80;;;18.40;55.80;;;;;;5039494;28;20131;-76
2023/02/27 02:07:29;;;;;;;1.00;1.00;;;18.40;56.10;;;;;;5055090;28;20045;-77
2023/02/27 02:09:56;;;;;;;0.60;0.50;;;18.40;56.80;;;;;;5038607;28;20540;-77
2023/02/27 02:12:26;;;;;;;0.70;0.70;;;18.40;56.30;;;;;;5038191;28;20044;-77
2023/02/27 02:14:51;;;;;;;0.80;0.80;;;18.40;56.10;;;;;;5054003;28;20049;-77
2023/02/27 02:17:38;;;;;;;0.63;0.63;;;18.30;56.10;;;;;;5054733;28;22058;-77
2023/02/27 02:20:19;;;;;;;0.77;0.77;;;18.40;56.00;;;;;;5055506;28;20525;-76
2023/02/27 02:23:09;;;;;;;1.05;0.95;;;18.30;55.90;;;;;;5053290;28;20122;-76
2023/02/27 02:25:40;;;;;;;0.50;0.50;;;18.30;55.90;;;;;;5054169;28;20102;-77
2023/02/27 02:28:34;;;;;;;0.60;0.60;;;18.30;56.20;;;;;;5053060;28;20101;-77
2023/02/27 02:31:21;;;;;;;0.70;0.70;;;18.30;56.30;;;;;;5053472;28;20429;-76
2023/02/27 02:33:49;;;;;;;1.30;0.65;;;18.30;56.10;;;;;;5053346;28;20094;-76
2023/02/27 02:36:39;;;;;;;0.98;0.70;;;18.20;56.20;;;;;;5055334;28;20523;-76
2023/02/27 02:39:09;;;;;;;0.70;0.70;;;18.20;56.40;;;;;;5051119;28;20069;-75
2023/02/27 02:42:02;;;;;;;0.80;0.80;;;18.10;56.40;;;;;;5051973;28;20049;-76
2023/02/27 02:44:33;;;;;;;1.52;0.93;;;18.20;56.20;;;;;;5053319;28;20165;-76
2023/02/27 02:47:14;;;;;;;1.55;0.82;;;18.10;56.40;;;;;;5052775;28;20102;-76
2023/02/27 02:49:49;;;;;;;0.70;0.70;;;18.10;56.40;;;;;;5053523;28;20505;-75
2023/02/27 02:52:33;;;;;;;1.50;0.80;;;18.10;56.40;;;;;;5050074;28;20055;-76
2023/02/27 02:55:01;;;;;;;0.95;0.70;;;18.10;56.20;;;;;;5054079;28;20401;-76
2023/02/27 02:57:33;;;;;;;0.80;0.60;;;18.10;56.40;;;;;;5054783;28;20040;-76
2023/02/27 03:00:05;;;;;;;0.82;0.82;;;18.10;56.70;;;;;;5023647;28;20127;-76
2023/02/27 03:02:33;;;;;;;1.10;1.00;;;18.00;56.60;;;;;;5053609;28;20477;-76
2023/02/27 03:05:06;;;;;;;1.30;0.70;;;18.10;56.60;;;;;;5036442;28;20068;-76
2023/02/27 03:07:40;;;;;;;0.50;0.50;;;18.10;56.60;;;;;;5052828;28;20056;-76
2023/02/27 03:10:15;;;;;;;1.05;0.70;;;18.10;56.50;;;;;;5037553;28;20052;-76
2023/02/27 03:12:43;;;;;;;0.60;0.60;;;18.10;56.60;;;;;;5045786;28;20048;-76
2023/02/27 03:15:46;;;;;;;0.68;0.68;;;18.10;57.00;;;;;;5051197;28;20181;-76
2023/02/27 03:18:18;;;;;;;0.60;0.60;;;18.00;56.40;;;;;;5013126;28;20464;-76
2023/02/27 03:20:51;;;;;;;2.92;0.85;;;18.00;56.90;;;;;;5051786;28;20052;-76
2023/02/27 03:23:20;;;;;;;0.70;0.70;;;18.00;56.30;;;;;;5023565;28;20659;-77
2023/02/27 03:25:46;;;;;;;0.80;0.50;;;18.00;56.10;;;;;;5038567;28;20163;-76
2023/02/27 03:28:18;;;;;;;0.77;0.55;;;18.10;56.40;;;;;;5054694;28;20040;-76
2023/02/27 03:30:59;;;;;;;0.68;0.65;;;18.10;56.10;;;;;;5034101;28;20136;-76
2023/02/27 03:33:34;;;;;;;0.75;0.63;;;18.00;56.30;;;;;;5051105;28;20040;-77
2023/02/27 03:36:28;;;;;;;1.48;0.70;;;18.00;56.50;;;;;;5051215;28;20079;-75
2023/02/27 03:38:58;;;;;;;1.35;0.73;;;18.00;56.60;;;;;;5050843;28;20082;-76
2023/02/27 03:41:44;;;;;;;1.40;1.00;;;17.90;56.80;;;;;;5051154;28;20083;-76
2023/02/27 03:44:12;;;;;;;0.68;0.68;;;17.90;56.70;;;;;;5053106;28;20045;-76
2023/02/27 03:46:37;;;;;;;1.63;0.82;;;17.90;56.60;;;;;;5052939;28;20045;-76
2023/02/27 03:49:03;;;;;;;0.50;0.50;;;17.90;56.50;;;;;;5034567;28;20060;-76
2023/02/27 03:51:30;;;;;;;0.60;0.60;;;18.00;56.60;;;;;;5051003;28;20051;-76
2023/02/27 03:54:21;;;;;;;0.73;0.73;;;17.90;56.60;;;;;;5037824;28;20048;-76
2023/02/27 03:57:02;;;;;;;1.42;0.80;;;17.90;56.70;;;;;;5037878;28;20075;-76
2023/02/27 03:59:27;;;;;;;0.63;0.63;;;17.90;56.50;;;;;;5050179;28;20053;-76
2023/02/27 04:01:54;;;;;;;0.90;0.60;;;17.90;56.30;;;;;;5052973;28;20118;-76
2023/02/27 04:04:19;;;;;;;0.60;0.60;;;18.00;56.40;;;;;;5051315;28;20078;-76
2023/02/27 04:09:54;;;;;;;1.00;0.73;;;17.90;56.50;;;;;;5050904;28;20063;-76
2023/02/27 04:12:22;;;;;;;0.57;0.57;;;18.00;56.20;;;;;;5037933;28;20044;-76
2023/02/27 04:15:07;;;;;;;0.43;0.43;;;18.00;56.30;;;;;;5051725;28;20106;-76
2023/02/27 04:17:36;;;;;;;2.25;0.60;;;17.90;56.40;;;;;;5051518;28;20099;-76
2023/02/27 04:20:15;;;;;;;0.73;0.60;;;17.90;56.30;;;;;;5037921;28;20048;-75
2023/02/27 04:23:05;;;;;;;0.77;0.50;;;17.90;56.70;;;;;;5050946;28;20080;-76
2023/02/27 04:26:03;;;;;;;0.60;0.60;;;17.90;56.30;;;;;;5043131;28;20679;-76
2023/02/27 04:28:43;;;;;;;0.60;0.60;;;17.90;56.50;;;;;;5055641;28;20167;-77
2023/02/27 04:31:12;;;;;;;0.75;0.75;;;17.80;56.50;;;;;;5040320;28;20367;-76
2023/02/27 04:34:10;;;;;;;0.80;0.60;;;17.80;56.90;;;;;;5053363;28;20113;-77
2023/02/27 04:37:05;;;;;;;0.98;0.80;;;17.90;57.10;;;;;;5053598;28;20746;-76
2023/02/27 04:39:42;;;;;;;0.50;0.50;;;17.90;57.30;;;;;;5044265;28;20080;-77
2023/02/27 04:42:13;;;;;;;0.45;0.45;;;17.80;57.30;;;;;;5054204;28;20055;-76
2023/02/27 04:44:39;;;;;;;0.55;0.55;;;17.80;57.70;;;;;;5037783;28;20037;-76
2023/02/27 04:47:05;;;;;;;0.73;0.57;;;17.80;57.80;;;;;;5038033;28;21015;-75
2023/02/27 04:49:36;;;;;;;0.88;0.88;;;17.80;57.60;;;;;;5036298;28;20056;-76
2023/02/27 04:52:05;;;;;;;0.60;0.50;;;17.80;57.80;;;;;;5053287;28;20045;-76
2023/02/27 04:54:39;;;;;;;0.45;0.45;;;17.80;57.70;;;;;;5038319;28;20072;-77
2023/02/27 04:57:10;;;;;;;1.67;0.65;;;17.80;57.40;;;;;;5053287;28;20106;-76
2023/02/27 04:59:39;;;;;;;0.65;0.50;;;17.80;57.60;;;;;;5053020;28;20546;-76
2023/02/27 05:02:16;;;;;;;0.60;0.50;;;17.80;57.70;;;;;;5054271;28;20056;-76
2023/02/27 05:04:42;;;;;;;0.80;0.55;;;17.90;57.50;;;;;;5054969;28;20134;-76
2023/02/27 05:07:09;;;;;;;0.50;0.50;;;17.80;57.50;;;;;;5020602;28;20614;-76
2023/02/27 05:09:42;;;;;;;0.55;0.55;;;17.80;57.20;;;;;;5051710;28;20052;-76
2023/02/27 05:12:35;;;;;;;0.60;0.60;;;17.70;57.60;;;;;;5036959;28;20060;-76
2023/02/27 05:15:17;;;;;;;0.57;0.47;;;17.80;57.60;;;;;;5067343;28;20044;-76
2023/02/27 05:17:52;;;;;;;0.40;0.40;;;17.80;57.50;;;;;;5064251;28;20052;-76
2023/02/27 05:20:18;;;;;;;0.55;0.40;;;17.80;57.40;;;;;;5048643;28;20044;-76
2023/02/27 05:22:49;;;;;;;0.60;0.50;;;17.80;57.20;;;;;;5050064;28;20032;-76
2023/02/27 05:25:32;;;;;;;0.50;0.40;;;17.70;57.50;;;;;;5067110;28;20090;-76
2023/02/27 05:28:19;;;;;;;0.50;0.50;;;17.60;57.50;;;;;;5050380;28;20036;-75
2023/02/27 05:31:02;;;;;;;0.47;0.47;;;17.70;57.30;;;;;;5050875;28;20071;-76
2023/02/27 05:33:37;;;;;;;0.43;0.43;;;17.60;57.40;;;;;;5065740;28;20139;-77
2023/02/27 05:36:16;;;;;;;0.90;0.55;;;17.70;57.50;;;;;;5067353;28;20044;-76
2023/02/27 05:38:46;;;;;;;0.40;0.40;;;17.70;57.30;;;;;;5067290;28;20540;-76
2023/02/27 05:41:14;;;;;;;0.88;0.40;;;17.70;57.60;;;;;;5051422;28;20071;-76
2023/02/27 05:43:46;;;;;;;0.50;0.50;;;17.60;57.30;;;;;;5068211;28;20051;-76
2023/02/27 05:46:22;;;;;;;0.40;0.40;;;17.70;57.30;;;;;;5051202;28;20068;-76
2023/02/27 05:48:53;;;;;;;0.50;0.50;;;17.70;57.20;;;;;;5050782;28;20060;-76
2023/02/27 05:51:19;;;;;;;0.50;0.38;;;17.70;57.20;;;;;;5051493;28;20500;-76
2023/02/27 05:53:49;;;;;;;0.30;0.30;;;17.60;57.20;;;;;;5064364;28;20840;-75
2023/02/27 05:56:16;;;;;;;0.40;0.40;;;17.70;57.40;;;;;;5049995;28;20037;-76
2023/02/27 05:59:02;;;;;;;0.50;0.40;;;17.70;56.90;;;;;;5047950;28;20041;-77
2023/02/27 06:01:28;;;;;;;0.40;0.40;;;17.60;57.00;;;;;;5064684;28;20051;-78
2023/02/27 06:03:53;;;;;;;0.38;0.32;;;17.70;57.00;;;;;;5065213;28;20101;-77
2023/02/27 06:06:19;;;;;;;0.50;0.47;;;17.60;56.90;;;;;;5062633;28;20110;-77
2023/02/27 06:08:45;;;;;;;0.40;0.40;;;17.60;57.30;;;;;;5065029;28;20109;-77
2023/02/27 06:11:12;;;;;;;0.30;0.30;;;17.60;57.40;;;;;;5065754;28;20040;-75
2023/02/27 06:13:37;;;;;;;0.50;0.43;;;17.70;56.90;;;;;;5065796;28;20036;-75
2023/02/27 06:16:03;;;;;;;0.32;0.30;;;17.60;56.90;;;;;;5063762;28;20037;-75
2023/02/27 06:18:29;;;;;;;0.35;0.35;;;17.60;57.10;;;;;;5063945;28;20040;-77
2023/02/27 06:20:54;;;;;;;0.35;0.35;;;17.50;57.20;;;;;;5067508;28;20060;-75
2023/02/27 06:23:20;;;;;;;0.35;0.35;;;17.50;57.00;;;;;;5066296;28;20094;-75
2023/02/27 06:25:46;;;;;;;1.08;0.50;;;17.50;57.20;;;;;;5067379;28;20509;-76
2023/02/27 06:28:12;;;;;;;0.40;0.30;;;17.60;56.90;;;;;;5065760;28;20456;-75
2023/02/27 06:30:37;;;;;;;0.30;0.30;;;17.60;56.40;;;;;;5067063;28;20033;-75
2023/02/27 06:33:04;;;;;;;0.40;0.30;;;17.50;57.00;;;;;;5065857;28;20036;-75
2023/02/27 06:35:29;;;;;;;0.30;0.30;;;17.50;57.10;;;;;;5048437;28;20436;-76
2023/02/27 06:37:56;;;;;;;0.35;0.25;;;17.40;57.00;;;;;;5064667;28;20060;-75
2023/02/27 06:40:21;;;;;;;1.42;0.63;;;17.50;58.30;;;;;;5064560;28;20093;-73
2023/02/27 06:42:47;;;;;;;0.90;0.43;;;17.50;58.70;;;;;;5066796;28;20436;-75
2023/02/27 06:45:13;;;;;;;0.50;0.40;;;17.50;58.70;;;;;;5066241;28;20036;-75
2023/02/27 06:47:39;;;;;;;1.70;1.52;;;17.40;58.10;;;;;;5063543;28;20574;-76
2023/02/27 06:50:05;;;;;;;2.47;1.20;;;17.40;57.90;;;;;;5066959;28;20036;-75
2023/02/27 06:52:31;;;;;;;7.18;4.75;;;17.40;58.40;;;;;;5065525;28;20098;-80
2023/02/27 06:54:57;;;;;;;9.30;6.70;;;17.40;58.20;;;;;;5066428;28;20037;-76
2023/02/27 06:57:23;;;;;;;14.88;9.45;;;17.40;58.60;;;;;;5067316;28;20106;-77
2023/02/27 06:59:48;;;;;;;19.88;11.23;;;17.40;58.10;;;;;;5065430;28;21278;-75
2023/02/27 07:02:14;;;;;;;21.40;11.50;;;17.40;58.20;;;;;;5065747;28;20070;-76
2023/02/27 07:04:40;;;;;;;25.77;11.85;;;17.50;58.80;;;;;;5066692;28;20075;-76
2023/02/27 07:07:06;;;;;;;23.00;11.93;;;17.50;59.20;;;;;;5065187;28;20040;-76
2023/02/27 07:09:31;;;;;;;24.65;11.18;;;17.50;60.20;;;;;;5063824;28;20057;-76
2023/02/27 07:11:57;;;;;;;19.42;10.85;;;17.60;62.70;;;;;;5066180;28;20052;-77
2023/02/27 07:14:24;;;;;;;21.63;10.55;;;17.50;62.10;;;;;;5066059;28;20040;-77
2023/02/27 07:16:53;;;;;;;16.15;9.18;;;17.50;60.60;;;;;;5066535;28;20098;-78
2023/02/27 07:19:19;;;;;;;16.88;9.52;;;17.40;62.60;;;;;;5067347;28;20036;-77
2023/02/27 07:21:45;;;;;;;16.50;9.13;;;17.40;62.80;;;;;;5063102;28;20051;-77
2023/02/27 07:24:10;;;;;;;14.98;9.32;;;17.40;63.80;;;;;;5065845;28;20036;-78
2023/02/27 07:26:36;;;;;;;15.15;9.38;;;17.40;62.50;;;;;;5065153;28;20035;-78
2023/02/27 07:29:02;;;;;;;13.43;8.70;;;17.50;62.30;;;;;;5065507;28;20060;-78
2023/02/27 07:31:28;;;;;;;14.38;7.80;;;17.60;63.80;;;;;;5062439;28;20170;-77
2023/02/27 07:33:53;;;;;;;12.35;7.45;;;17.60;65.00;;;;;;5062945;28;20055;-80
2023/02/27 07:36:19;;;;;;;10.93;7.43;;;17.60;64.80;;;;;;5064603;28;20033;-79
2023/02/27 07:38:45;;;;;;;10.32;6.75;;;17.60;65.70;;;;;;5063837;28;20420;-80
2023/02/27 07:41:10;;;;;;;10.77;7.05;;;17.60;65.10;;;;;;5064376;28;20063;-81
2023/02/27 07:43:36;;;;;;;10.15;6.78;;;17.60;65.80;;;;;;5063788;28;20068;-79
2023/02/27 07:46:04;;;;;;;9.32;6.68;;;17.70;65.80;;;;;;5064545;28;20119;-81
2023/02/27 07:48:31;;;;;;;9.93;6.13;;;17.70;65.30;;;;;;5062549;28;20051;-77
2023/02/27 07:50:57;;;;;;;11.65;6.10;;;17.80;66.30;;;;;;5059244;28;20037;-80
2023/02/27 07:53:22;;;;;;;10.70;6.28;;;17.90;65.70;;;;;;5066311;28;20059;-76
2023/02/27 07:55:48;;;;;;;9.60;5.90;;;18.00;65.70;;;;;;5065060;28;20045;-82
2023/02/27 07:58:14;;;;;;;9.57;5.53;;;18.00;65.50;;;;;;5064665;28;20042;-81
2023/02/27 08:00:39;;;;;;;8.07;5.63;;;18.20;65.00;;;;;;5064915;28;20044;-83
2023/02/27 08:03:05;;;;;;;6.80;5.68;;;18.40;65.30;;;;;;5062561;28;20686;-83
2023/02/27 08:05:30;;;;;;;8.93;5.32;;;18.50;64.20;;;;;;5068368;28;20072;-81
2023/02/27 08:07:56;;;;;;;12.25;6.15;;;18.60;63.90;;;;;;5067590;28;20066;-82
2023/02/27 08:10:22;;;;;;;9.80;6.05;;;18.60;64.80;;;;;;5069796;28;20076;-81
2023/02/27 08:12:47;;;;;;;10.70;6.05;;;18.80;64.00;;;;;;5068168;28;20060;-74
2023/02/27 08:15:13;;;;;;;7.65;5.63;;;18.90;63.90;;;;;;5067999;28;20053;-77
2023/02/27 08:17:38;;;;;;;7.35;5.35;;;19.00;63.70;;;;;;5067374;28;20047;-76
2023/02/27 08:20:06;;;;;;;8.20;5.93;;;19.10;63.40;;;;;;5067920;28;20055;-76
2023/02/27 08:22:31;;;;;;;8.20;5.55;;;19.10;63.30;;;;;;5069706;28;20505;-76
2023/02/27 08:24:57;;;;;;;7.75;5.32;;;19.10;63.70;;;;;;5061879;28;20056;-76
2023/02/27 08:27:23;;;;;;;4.97;4.13;;;19.10;64.10;;;;;;5067104;28;20721;-76
2023/02/27 08:29:48;;;;;;;6.88;4.68;;;19.10;63.60;;;;;;5067206;28;20144;-76
2023/02/27 08:32:14;;;;;;;6.10;4.25;;;19.20;63.90;;;;;;5070146;28;20056;-76
2023/02/27 08:34:40;;;;;;;6.80;4.22;;;19.20;64.20;;;;;;5068893;28;20061;-77
2023/02/27 08:37:05;;;;;;;7.07;4.85;;;19.20;63.00;;;;;;5069142;28;20040;-76
2023/02/27 08:39:31;;;;;;;10.32;4.40;;;19.10;63.50;;;;;;5069347;28;20574;-77
2023/02/27 08:41:56;;;;;;;6.60;4.60;;;19.20;63.30;;;;;;5067816;28;20024;-76
2023/02/27 08:44:22;;;;;;;7.05;4.43;;;19.30;63.30;;;;;;5065046;28;20109;-76
2023/02/27 08:46:47;;;;;;;8.70;4.45;;;19.30;63.10;;;;;;5064565;28;20029;-77
2023/02/27 08:49:13;;;;;;;6.72;4.78;;;19.40;63.30;;;;;;5067302;28;20098;-74
2023/02/27 08:51:39;;;;;;;4.60;4.10;;;19.50;62.40;;;;;;5066566;28;20516;-76
2023/02/27 08:54:04;;;;;;;6.05;4.60;;;19.60;62.70;;;;;;5061901;28;20060;-75
2023/02/27 08:56:32;;;;;;;4.95;4.45;;;19.70;62.30;;;;;;5064566;28;20051;-75
2023/02/27 08:58:57;;;;;;;6.28;3.97;;;19.80;62.40;;;;;;5064990;28;20047;-75
2023/02/27 09:01:26;;;;;;;5.20;3.50;;;19.90;62.60;;;;;;5064420;28;20040;-75
2023/02/27 09:03:52;;;;;;;7.88;4.30;;;19.90;62.50;;;;;;5063601;28;20025;-76
2023/02/27 09:06:18;;;;;;;4.82;3.42;;;19.90;62.30;;;;;;5065478;28;20297;-76
2023/02/27 09:08:43;;;;;;;3.80;3.40;;;19.90;61.60;;;;;;5065556;28;20036;-77
2023/02/27 09:11:09;;;;;;;5.90;3.03;;;19.80;61.90;;;;;;5066413;28;20704;-77
2023/02/27 09:13:34;;;;;;;4.97;3.20;;;19.90;61.40;;;;;;5065240;28;20095;-78
2023/02/27 09:16:00;;;;;;;4.10;3.40;;;19.90;61.70;;;;;;5066471;28;20450;-79
2023/02/27 09:18:25;;;;;;;4.35;3.72;;;19.90;61.70;;;;;;5065172;28;20131;-77
2023/02/27 09:20:51;;;;;;;3.75;3.45;;;19.90;61.50;;;;;;5063622;28;20045;-78
2023/02/27 09:23:17;;;;;;;5.03;3.65;;;20.00;62.30;;;;;;5066699;28;20039;-78
2023/02/27 09:25:42;;;;;;;5.10;3.20;;;20.00;61.40;;;;;;5068263;28;20052;-78
2023/02/27 09:28:08;;;;;;;3.70;3.10;;;20.00;61.10;;;;;;5066976;28;20432;-79
2023/02/27 09:30:34;;;;;;;4.07;3.30;;;20.00;61.00;;;;;;5066874;28;20040;-78
2023/02/27 09:32:59;;;;;;;3.38;3.08;;;20.00;60.80;;;;;;5064950;28;20531;-78
2023/02/27 09:35:25;;;;;;;4.93;2.78;;;20.10;60.80;;;;;;5068101;28;20643;-79
2023/02/27 09:37:51;;;;;;;5.13;2.90;;;20.10;60.70;;;;;;5066905;28;20093;-79
2023/02/27 09:40:24;;;;;;;3.28;2.95;;;20.10;60.20;;;;;;5066531;28;20387;-80
2023/02/27 09:42:49;;;;;;;4.60;3.00;;;20.20;60.70;;;;;;5064618;28;20040;-79
2023/02/27 09:45:22;;;;;;;3.28;2.97;;;20.20;60.70;;;;;;5048144;28;20468;-79
2023/02/27 09:47:50;;;;;;;4.20;3.08;;;20.30;60.40;;;;;;5042244;28;20036;-79
2023/02/27 09:50:33;;;;;;;3.67;2.53;;;20.30;60.70;;;;;;5067916;28;20105;-79
2023/02/27 09:52:59;;;;;;;2.55;2.35;;;20.40;60.50;;;;;;5066236;28;20063;-80
2023/02/27 09:55:24;;;;;;;6.47;2.67;;;20.40;60.30;;;;;;5066490;28;20432;-83
2023/02/27 09:58:05;;;;;;;3.00;2.50;;;20.50;60.00;;;;;;5064893;28;20060;-85
2023/02/27 10:00:48;;;;;;;3.20;2.53;;;20.60;59.70;;;;;;5065294;28;20057;-83
2023/02/27 10:03:32;;;;;;;2.63;2.15;;;20.60;59.70;;;;;;5064338;28;20032;-82
2023/02/27 10:06:17;;;;;;;;;;;20.60;59.60;;;;;;5067403;28;20446;-89
2023/02/27 10:09:12;;;;;;;2.90;1.80;;;20.50;59.90;;;;;;5066258;28;20034;-83
2023/02/27 10:11:53;;;;;;;3.10;2.45;;;20.50;60.00;;;;;;5055404;28;20044;-87
2023/02/27 10:14:24;;;;;;;2.33;2.00;;;20.50;60.00;;;;;;5064933;28;20029;-84
2023/02/27 10:16:50;;;;;;;3.28;2.08;;;20.60;59.60;;;;;;5067550;28;20556;-83
2023/02/27 10:19:23;;;;;;;2.03;1.83;;;20.60;59.40;;;;;;5066977;28;20115;-85
2023/02/27 10:21:50;;;;;;;1.85;1.75;;;20.60;59.20;;;;;;5033218;28;20127;-86
2023/02/27 10:24:39;;;;;;;2.67;2.17;;;20.70;59.10;;;;;;5071090;28;20509;-85
2023/02/27 10:27:05;;;;;;;2.22;2.03;;;20.70;58.90;;;;;;5053679;28;20074;-85
2023/02/27 10:29:41;;;;;;;2.45;1.88;;;20.70;58.90;;;;;;5050283;28;20056;-84
2023/02/27 10:32:22;;;;;;;1.85;1.75;;;20.80;58.80;;;;;;5064175;28;20044;-82
2023/02/27 10:35:05;;;;;;;3.75;1.85;;;20.80;59.00;;;;;;5064841;28;20036;-83
2023/02/27 10:37:31;;;;;;;1.88;1.73;;;20.70;59.30;;;;;;5063911;28;20052;-83
2023/02/27 10:39:58;;;;;;;2.33;1.63;;;20.70;59.50;;;;;;5065053;28;20043;-77
2023/02/27 10:42:25;;;;;;;3.50;1.77;;;20.70;59.80;;;;;;5049360;28;20623;-77
2023/02/27 10:44:52;;;;;;;3.38;1.80;;;20.70;59.00;;;;;;5063413;28;20037;-77
2023/02/27 10:47:22;;;;;;;2.50;1.88;;;20.80;58.70;;;;;;5062807;28;20048;-77
2023/02/27 10:49:48;;;;;;;1.70;1.60;;;20.90;58.50;;;;;;5064410;28;20044;-77
2023/02/27 10:52:14;;;;;;;3.03;1.90;;;20.90;58.30;;;;;;5050232;28;20385;-77
2023/02/27 10:54:40;;;;;;;2.55;1.45;;;20.90;58.10;;;;;;5048924;28;20071;-77
2023/02/27 10:57:32;;;;;;;1.88;1.50;;;21.00;57.90;;;;;;5065513;28;20065;-77
2023/02/27 11:00:05;;;;;;;1.80;1.45;;;21.10;57.90;;;;;;5063040;28;20037;-77
2023/02/27 11:02:43;;;;;;;1.58;1.48;;;21.20;58.30;;;;;;5064480;28;20036;-77
2023/02/27 11:05:29;;;;;;;2.30;1.60;;;21.30;57.40;;;;;;5047538;28;20398;-77
2023/02/27 11:08:20;;;;;;;3.58;1.90;;;21.30;57.20;;;;;;5065066;28;20593;-77
2023/02/27 11:11:10;;;;;;;1.80;1.40;;;21.50;57.10;;;;;;5062832;28;20048;-78
2023/02/27 11:13:41;;;;;;;2.22;1.33;;;21.50;56.90;;;;;;5050597;28;20025;-77
2023/02/27 11:16:13;;;;;;;1.50;1.40;;;21.60;56.60;;;;;;5046754;28;20084;-77
2023/02/27 11:18:46;;;;;;;1.50;1.40;;;21.70;56.50;;;;;;5064553;28;20501;-77
2023/02/27 11:21:25;;;;;;;1.63;1.40;;;21.70;56.30;;;;;;5063459;28;20052;-78
2023/02/27 11:23:54;;;;;;;1.58;1.48;;;21.80;56.20;;;;;;5064677;28;20040;-78
2023/02/27 11:26:31;;;;;;;1.50;1.40;;;21.80;56.00;;;;;;5064658;28;20040;-78
2023/02/27 11:29:06;;;;;;;1.73;1.30;;;21.80;56.00;;;;;;5066098;28;20053;-77
2023/02/27 11:31:31;;;;;;;1.50;1.40;;;21.90;55.80;;;;;;5063696;28;20037;-77
2023/02/27 11:33:57;;;;;;;1.50;1.40;;;22.00;55.70;;;;;;5047517;28;20047;-78
2023/02/27 11:36:38;;;;;;;1.63;1.50;;;22.00;55.70;;;;;;5069840;28;20120;-77
2023/02/27 11:39:03;;;;;;;1.88;1.35;;;22.00;55.60;;;;;;5049641;28;20049;-78
2023/02/27 11:41:31;;;;;;;1.77;1.27;;;22.00;55.60;;;;;;5069430;28;20033;-78
2023/02/27 11:43:56;;;;;;;2.22;1.42;;;21.90;55.50;;;;;;5068494;28;20083;-78
2023/02/27 11:46:23;;;;;;;3.80;1.35;;;21.90;55.60;;;;;;5069058;28;20044;-77
2023/02/27 11:48:58;;;;;;;1.55;1.38;;;21.90;55.60;;;;;;5051095;28;20115;-78
2023/02/27 11:51:24;;;;;;;2.05;0.90;;;21.90;55.60;;;;;;5051312;28;20060;-78
2023/02/27 11:54:01;;;;;;;1.45;0.95;;;21.80;55.60;;;;;;5075298;28;20414;-78
2023/02/27 11:56:31;;;;;;;1.10;1.00;;;21.80;55.50;;;;;;5066989;28;20516;-77
2023/02/27 11:59:02;;;;;;;1.45;1.10;;;21.80;55.60;;;;;;5067973;28;20045;-78
2023/02/27 12:01:45;;;;;;;2.55;1.15;;;21.80;55.60;;;;;;5066936;28;20048;-77
2023/02/27 12:04:19;;;;;;;2.47;1.40;;;21.80;55.70;;;;;;5067208;28;20048;-77
2023/02/27 12:07:14;;;;;;;1.40;1.30;;;21.70;55.60;;;;;;5067504;28;20061;-76
2023/02/27 12:10:12;;;;;;;;;;;21.80;55.70;;;;;;5066177;28;20060;-77
2023/02/27 12:12:43;;;;;;;1.30;1.20;;;21.70;55.70;;;;;;5038826;28;19924;-77
2023/02/27 12:15:17;;;;;;;1.38;1.10;;;21.70;55.80;;;;;;5068427;28;20579;-76
2023/02/27 12:17:44;;;;;;;1.20;1.10;;;21.60;55.70;;;;;;5064481;28;20567;-77
2023/02/27 12:20:42;;;;;;;1.10;1.00;;;21.60;55.90;;;;;;5065385;28;20110;-77
2023/02/27 12:23:20;;;;;;;0.77;0.77;;;21.60;55.80;;;;;;5037646;28;20068;-77
2023/02/27 12:26:00;;;;;;;0.95;0.88;;;21.50;56.10;;;;;;5066529;28;20040;-77
2023/02/27 12:28:44;;;;;;;1.73;0.90;;;21.50;55.40;;;;;;5051398;28;20133;-76
2023/02/27 12:31:31;;;;;;;2.28;1.00;;;21.50;55.70;;;;;;5063625;28;20151;-76
2023/02/27 12:34:15;;;;;;;2.08;1.25;;;21.50;56.00;;;;;;5065372;28;20527;-77
2023/02/27 12:36:41;;;;;;;2.58;1.60;;;21.40;56.50;;;;;;5067562;28;20094;-76
2023/02/27 12:39:20;;;;;;;5.43;2.40;;;21.40;57.90;;;;;;5064520;28;20040;-75
2023/02/27 12:41:58;;;;;;;4.90;2.03;;;21.40;57.00;;;;;;5051004;28;20039;-76
2023/02/27 12:44:54;;;;;;;3.33;1.85;;;21.30;57.50;;;;;;5066180;28;20032;-75
2023/02/27 12:47:22;;;;;;;3.47;1.80;;;21.30;57.70;;;;;;5064601;28;20513;-76
2023/02/27 12:50:09;;;;;;;1.30;1.20;;;21.30;57.60;;;;;;5068880;28;20093;-76
2023/02/27 12:53:13;;;;;;;5.20;1.40;;;21.40;58.20;;;;;;5050064;28;20577;-76
2023/02/27 12:55:54;;;;;;;1.53;1.30;;;21.30;57.60;;;;;;5012825;28;20534;-76
2023/02/27 12:58:40;;;;;;;1.95;1.42;;;21.30;57.40;;;;;;5009484;28;21956;-76
2023/02/27 13:01:13;;;;;;;1.42;1.33;;;21.40;57.60;;;;;;4992962;28;20526;-76
2023/02/27 13:03:54;;;;;;;2.88;1.20;;;21.40;57.50;;;;;;4994030;28;20586;-76
2023/02/27 13:06:22;;;;;;;2.58;1.05;;;21.40;57.10;;;;;;4991786;28;20042;-77
2023/02/27 13:09:24;;;;;;;1.45;1.25;;;21.30;57.00;;;;;;5010767;28;20034;-75